Time;durP1;ratioP1;P1;durP2;ratioP2;P2;SDS_P1;SDS_P2;PMS_P1;PMS_P2;Temp;Humidity;BMP_temperature;BMP_pressure;BME280_temperature;BME280_humidity;BME280_pressure;Samples;Min_cycle;Max_cycle;Signal;HPM_P1;HPM_P2
2022/09/05 00:00:05;;;;;;;2.47;1.50;;;17.30;99.90;;;;;;5093300;28;20208;-57
2022/09/05 00:02:44;;;;;;;2.47;1.80;;;17.30;99.90;;;;;;5092770;28;20204;-57
2022/09/05 00:05:31;;;;;;;2.08;1.60;;;17.30;99.90;;;;;;5092925;28;20253;-57
2022/09/05 00:08:05;;;;;;;2.10;1.70;;;17.30;99.90;;;;;;5092457;28;20598;-56
2022/09/05 00:10:39;;;;;;;2.83;1.70;;;17.30;99.90;;;;;;5093194;28;20661;-56
2022/09/05 00:13:12;;;;;;;1.75;1.65;;;17.40;99.90;;;;;;5092642;28;20679;-57
2022/09/05 00:15:49;;;;;;;4.35;1.70;;;17.30;99.90;;;;;;5092637;28;20204;-57
2022/09/05 00:18:49;;;;;;;1.50;1.40;;;17.30;99.90;;;;;;5092247;28;20232;-57
2022/09/05 00:21:28;;;;;;;2.22;1.67;;;17.30;99.90;;;;;;5092492;28;20208;-56
2022/09/05 00:24:11;;;;;;;1.85;1.67;;;17.30;99.90;;;;;;5092561;28;20255;-56
2022/09/05 00:26:50;;;;;;;2.83;1.92;;;17.40;99.90;;;;;;5092447;28;20270;-57
2022/09/05 00:29:37;;;;;;;3.75;1.70;;;17.30;99.90;;;;;;5092584;28;20257;-57
2022/09/05 00:32:12;;;;;;;1.77;1.52;;;17.30;99.90;;;;;;5089015;28;20208;-58
2022/09/05 00:35:06;;;;;;;3.42;1.60;;;17.30;99.90;;;;;;5092147;28;20207;-56
2022/09/05 00:37:37;;;;;;;2.92;1.70;;;17.30;99.90;;;;;;5092075;28;20231;-56
2022/09/05 00:40:24;;;;;;;4.40;1.90;;;17.30;99.90;;;;;;5092022;28;20208;-56
2022/09/05 00:42:55;;;;;;;2.78;1.83;;;17.30;99.90;;;;;;5092047;28;20224;-57
2022/09/05 00:45:32;;;;;;;2.63;2.00;;;17.20;99.90;;;;;;5092348;28;20223;-56
2022/09/05 00:48:11;;;;;;;3.72;1.70;;;17.20;99.90;;;;;;5092269;28;20273;-57
2022/09/05 00:50:58;;;;;;;2.30;1.52;;;17.10;99.90;;;;;;5092594;28;20273;-56
2022/09/05 00:53:33;;;;;;;4.30;1.85;;;17.10;99.90;;;;;;5092741;28;20197;-55
2022/09/05 00:56:08;;;;;;;4.47;1.65;;;17.00;99.90;;;;;;5092498;28;20199;-56
2022/09/05 00:58:51;;;;;;;1.73;1.58;;;17.00;99.90;;;;;;5092182;28;20273;-56
2022/09/05 01:01:30;;;;;;;2.03;1.67;;;17.00;99.90;;;;;;5092241;28;20211;-55
2022/09/05 01:04:15;;;;;;;2.25;1.80;;;17.00;99.90;;;;;;5092224;28;20268;-56
2022/09/05 01:06:57;;;;;;;1.65;1.45;;;17.00;99.90;;;;;;5091598;28;20624;-55
2022/09/05 01:09:33;;;;;;;5.32;1.80;;;16.80;99.90;;;;;;5091736;28;20578;-56
2022/09/05 01:12:14;;;;;;;1.58;1.48;;;16.70;99.90;;;;;;5091968;28;20207;-56
2022/09/05 01:15:10;;;;;;;2.33;1.60;;;16.80;99.90;;;;;;5091983;28;20651;-55
2022/09/05 01:17:50;;;;;;;3.30;1.90;;;16.80;99.90;;;;;;5074327;28;20228;-55
2022/09/05 01:20:32;;;;;;;1.63;1.40;;;16.80;99.90;;;;;;5091723;28;20204;-56
2022/09/05 01:23:18;;;;;;;3.45;1.60;;;16.80;99.90;;;;;;5091772;28;20227;-55
2022/09/05 01:26:01;;;;;;;1.50;1.40;;;16.80;99.90;;;;;;5091844;28;20204;-55
2022/09/05 01:28:34;;;;;;;2.28;1.77;;;16.80;99.90;;;;;;5091417;28;20311;-57
2022/09/05 01:31:09;;;;;;;3.25;2.00;;;16.80;99.90;;;;;;5092501;28;20211;-55
2022/09/05 01:33:46;;;;;;;2.03;1.75;;;16.70;99.90;;;;;;5091769;28;20257;-55
2022/09/05 01:36:30;;;;;;;1.67;1.40;;;16.70;99.90;;;;;;5091614;28;20207;-55
2022/09/05 01:39:03;;;;;;;2.97;1.85;;;16.70;99.90;;;;;;5091599;28;20220;-56
2022/09/05 01:41:38;;;;;;;1.83;1.70;;;16.70;99.90;;;;;;5091703;28;20204;-56
2022/09/05 01:44:19;;;;;;;2.60;1.50;;;16.70;99.90;;;;;;5091767;28;20223;-56
2022/09/05 01:46:58;;;;;;;1.95;1.75;;;16.60;99.90;;;;;;5091489;28;20265;-57
2022/09/05 01:49:43;;;;;;;3.33;1.95;;;16.50;99.90;;;;;;5091814;28;20204;-56
2022/09/05 01:52:29;;;;;;;3.90;2.00;;;16.50;99.90;;;;;;5095270;28;20215;-55
2022/09/05 01:55:16;;;;;;;2.03;1.80;;;16.40;99.90;;;;;;5095925;28;20211;-56
2022/09/05 01:57:50;;;;;;;2.33;1.90;;;16.30;99.90;;;;;;5095103;28;20670;-56
2022/09/05 02:00:21;;;;;;;2.37;1.80;;;16.30;99.90;;;;;;5095589;28;20200;-56
2022/09/05 02:03:01;;;;;;;2.80;2.10;;;16.20;99.90;;;;;;5095449;28;20687;-56
2022/09/05 02:05:52;;;;;;;2.87;1.80;;;16.10;99.90;;;;;;5095476;28;20199;-56
2022/09/05 02:08:48;;;;;;;3.40;1.63;;;16.00;99.90;;;;;;5094835;28;20227;-56
2022/09/05 02:11:15;;;;;;;3.47;1.70;;;15.90;99.90;;;;;;5095155;28;20822;-56
2022/09/05 02:13:56;;;;;;;2.10;1.90;;;15.80;99.90;;;;;;5095269;28;20291;-56
2022/09/05 02:16:32;;;;;;;2.13;1.67;;;15.90;99.90;;;;;;5094878;28;20896;-56
2022/09/05 02:19:06;;;;;;;2.03;1.70;;;15.80;99.90;;;;;;5095396;28;20288;-56
2022/09/05 02:21:41;;;;;;;2.17;1.80;;;15.80;99.90;;;;;;5095126;28;20204;-55
2022/09/05 02:24:15;;;;;;;1.80;1.60;;;15.70;99.90;;;;;;5094998;28;20224;-57
2022/09/05 02:27:02;;;;;;;2.80;2.10;;;15.70;99.90;;;;;;5094566;28;20204;-55
2022/09/05 02:29:37;;;;;;;2.05;1.83;;;15.80;99.90;;;;;;5094907;28;20348;-55
2022/09/05 02:32:15;;;;;;;2.10;1.52;;;15.80;99.90;;;;;;5094908;28;20204;-56
2022/09/05 02:34:53;;;;;;;3.17;2.40;;;15.80;99.90;;;;;;5095155;28;20682;-56
2022/09/05 02:37:25;;;;;;;1.90;1.70;;;15.80;99.90;;;;;;5094196;28;20221;-56
2022/09/05 02:39:56;;;;;;;3.33;1.98;;;15.80;99.90;;;;;;5094661;28;20208;-56
2022/09/05 02:42:29;;;;;;;2.67;1.70;;;15.80;99.90;;;;;;5094502;28;20216;-56
2022/09/05 02:45:08;;;;;;;2.58;1.60;;;15.80;99.90;;;;;;5094407;28;20224;-56
2022/09/05 02:47:42;;;;;;;2.20;1.70;;;15.80;99.90;;;;;;5094315;28;20247;-56
2022/09/05 02:50:28;;;;;;;7.33;2.37;;;15.80;99.90;;;;;;5094313;28;20244;-58
2022/09/05 02:52:56;;;;;;;1.97;1.70;;;15.80;99.90;;;;;;5094500;28;20204;-56
2022/09/05 02:55:30;;;;;;;2.80;1.80;;;15.70;99.90;;;;;;5094314;28;20571;-55
2022/09/05 02:58:14;;;;;;;3.10;1.97;;;15.70;99.90;;;;;;5093781;28;20228;-55
2022/09/05 03:00:47;;;;;;;2.57;1.90;;;15.70;99.90;;;;;;5094290;28;20216;-56
2022/09/05 03:03:27;;;;;;;2.17;1.90;;;15.70;99.90;;;;;;5093985;28;20253;-56
2022/09/05 03:06:00;;;;;;;3.25;2.28;;;15.70;99.90;;;;;;5093979;28;20706;-55
2022/09/05 03:08:49;;;;;;;2.63;2.20;;;15.60;99.90;;;;;;5093655;28;20220;-55
2022/09/05 03:11:48;;;;;;;11.93;6.82;;;15.60;99.90;;;;;;5093933;28;20632;-55
2022/09/05 03:15:01;;;;;;;13.70;11.63;;;15.70;99.90;;;;;;5093782;28;20253;-56
2022/09/05 03:17:55;;;;;;;8.50;5.03;;;15.70;99.90;;;;;;5093604;28;20240;-55
2022/09/05 03:21:02;;;;;;;4.83;2.77;;;15.80;99.90;;;;;;5093943;28;20204;-56
2022/09/05 03:24:01;;;;;;;3.93;2.20;;;15.80;99.90;;;;;;5093779;28;20208;-56
2022/09/05 03:27:08;;;;;;;5.67;2.40;;;15.80;99.90;;;;;;5093442;28;20676;-56
2022/09/05 03:30:04;;;;;;;7.17;4.30;;;15.80;99.90;;;;;;5093335;28;20204;-58
2022/09/05 03:33:04;;;;;;;4.80;3.63;;;15.80;99.90;;;;;;5093727;28;20625;-57
2022/09/05 03:36:15;;;;;;;6.25;4.38;;;15.80;99.90;;;;;;5093365;28;20263;-57
2022/09/05 03:39:32;;;;;;;4.93;2.80;;;15.80;99.90;;;;;;5093273;28;20231;-57
2022/09/05 03:42:22;;;;;;;6.03;3.55;;;15.70;99.90;;;;;;5093057;28;20261;-56
2022/09/05 03:45:00;;;;;;;3.80;2.57;;;15.70;99.90;;;;;;5090147;28;20752;-57
2022/09/05 03:48:01;;;;;;;4.63;2.50;;;15.70;99.90;;;;;;5093036;28;20224;-56
2022/09/05 03:50:36;;;;;;;2.40;2.20;;;15.70;99.90;;;;;;5072648;28;20200;-56
2022/09/05 03:53:27;;;;;;;4.40;2.40;;;15.70;99.90;;;;;;5093465;28;20410;-56
2022/09/05 03:56:05;;;;;;;3.43;3.00;;;15.70;99.90;;;;;;5093325;28;20680;-57
2022/09/05 03:58:57;;;;;;;3.57;2.60;;;15.70;99.90;;;;;;5092707;28;20243;-57
2022/09/05 04:01:34;;;;;;;3.13;2.50;;;15.70;99.90;;;;;;5093327;28;20266;-56
2022/09/05 04:04:03;;;;;;;2.80;2.50;;;15.70;99.90;;;;;;5092913;28;20609;-57
2022/09/05 04:06:35;;;;;;;4.53;2.60;;;15.60;99.90;;;;;;5092720;28;20204;-57
2022/09/05 04:09:09;;;;;;;3.03;2.40;;;15.60;99.90;;;;;;5092693;28;20231;-58
2022/09/05 04:11:41;;;;;;;4.70;3.90;;;15.70;99.90;;;;;;5092814;28;20576;-57
2022/09/05 04:14:12;;;;;;;4.80;3.17;;;15.70;99.90;;;;;;5092312;28;20725;-56
2022/09/05 04:16:49;;;;;;;3.90;3.13;;;15.70;99.90;;;;;;5092654;28;20246;-55
2022/09/05 04:19:23;;;;;;;4.23;3.47;;;15.70;99.90;;;;;;5132888;22;20234;-57
2022/09/05 04:21:58;;;;;;;3.87;3.37;;;15.70;99.90;;;;;;5114186;28;20748;-57
2022/09/05 04:24:29;;;;;;;3.47;2.60;;;15.70;99.90;;;;;;5114062;28;20309;-57
2022/09/05 04:27:19;;;;;;;3.93;2.77;;;15.70;99.90;;;;;;5113924;28;20204;-57
2022/09/05 04:29:57;;;;;;;3.30;2.80;;;15.70;99.90;;;;;;5093821;28;20208;-56
2022/09/05 04:32:39;;;;;;;4.83;2.83;;;15.60;99.90;;;;;;5093482;28;20623;-58
2022/09/05 04:35:30;;;;;;;9.57;6.43;;;15.60;99.90;;;;;;5093838;28;20211;-57
2022/09/05 04:38:04;;;;;;;3.03;2.73;;;15.60;99.90;;;;;;5093265;28;20619;-57
2022/09/05 04:40:42;;;;;;;2.80;2.47;;;15.50;99.90;;;;;;5093608;28;20208;-58
2022/09/05 04:43:28;;;;;;;3.10;2.53;;;15.50;99.90;;;;;;5093417;28;20211;-58
2022/09/05 04:46:05;;;;;;;5.23;2.57;;;15.50;99.90;;;;;;5090067;28;20254;-58
2022/09/05 04:48:36;;;;;;;2.47;2.20;;;15.40;99.90;;;;;;5092688;28;20243;-58
2022/09/05 04:51:09;;;;;;;3.77;2.40;;;15.50;99.90;;;;;;5093289;28;20687;-58
2022/09/05 04:54:05;;;;;;;3.63;2.57;;;15.50;99.90;;;;;;5093622;28;20215;-58
2022/09/05 04:56:38;;;;;;;2.30;2.10;;;15.50;99.90;;;;;;5092989;28;20212;-56
2022/09/05 04:59:16;;;;;;;2.20;2.00;;;15.50;99.90;;;;;;5093142;28;20231;-58
2022/09/05 05:01:47;;;;;;;3.30;2.00;;;15.60;99.90;;;;;;5093098;28;20228;-59
2022/09/05 05:04:19;;;;;;;3.60;2.20;;;15.60;99.90;;;;;;5093345;28;20215;-58
2022/09/05 05:06:54;;;;;;;4.33;2.23;;;15.70;99.90;;;;;;5092529;28;20204;-58
2022/09/05 05:09:26;;;;;;;3.30;2.97;;;15.80;99.90;;;;;;5092785;28;20227;-58
2022/09/05 05:11:56;;;;;;;5.97;3.10;;;15.90;99.90;;;;;;5092929;28;20601;-58
2022/09/05 05:14:31;;;;;;;3.80;2.70;;;16.00;99.90;;;;;;5093390;28;20580;-56
2022/09/05 05:17:05;;;;;;;3.60;2.60;;;16.20;99.90;;;;;;5093479;28;20667;-58
2022/09/05 05:19:39;;;;;;;6.10;2.30;;;16.40;99.90;;;;;;5093043;28;20239;-58
2022/09/05 05:22:07;;;;;;;4.47;2.20;;;16.60;99.90;;;;;;5093114;28;20588;-58
2022/09/05 05:24:36;;;;;;;2.25;2.00;;;16.70;99.90;;;;;;5093130;28;20231;-58
2022/09/05 05:27:08;;;;;;;3.65;2.08;;;16.80;99.90;;;;;;5096272;28;20631;-58
2022/09/05 05:29:45;;;;;;;3.47;2.60;;;16.90;99.90;;;;;;5097443;28;20626;-58
2022/09/05 05:32:22;;;;;;;3.05;2.45;;;17.00;99.90;;;;;;5097924;28;20208;-63
2022/09/05 05:34:54;;;;;;;2.20;1.98;;;17.30;99.90;;;;;;5098262;28;20196;-59
2022/09/05 05:37:25;;;;;;;4.43;2.30;;;17.50;99.90;;;;;;5097910;28;20694;-60
2022/09/05 05:40:07;;;;;;;6.45;2.53;;;17.60;99.90;;;;;;5097775;28;20208;-60
2022/09/05 05:42:35;;;;;;;6.15;2.30;;;17.80;99.90;;;;;;5097936;28;20208;-59
2022/09/05 05:45:05;;;;;;;4.63;2.25;;;18.20;99.90;;;;;;5097450;28;20235;-59
2022/09/05 05:47:37;;;;;;;2.30;2.10;;;18.50;99.90;;;;;;5098261;28;20639;-60
2022/09/05 05:50:09;;;;;;;3.75;2.15;;;18.90;99.90;;;;;;5097695;28;20207;-60
2022/09/05 05:52:49;;;;;;;4.30;2.33;;;19.60;99.90;;;;;;5097332;28;20257;-60
2022/09/05 05:55:48;;;;;;;4.35;2.47;;;20.10;99.90;;;;;;5097356;28;20200;-60
2022/09/05 05:58:27;;;;;;;4.43;2.30;;;20.40;99.90;;;;;;5097532;28;20596;-59
2022/09/05 06:01:24;;;;;;;3.65;2.22;;;21.10;99.90;;;;;;5098357;28;20204;-58
2022/09/05 06:04:19;;;;;;;7.43;2.60;;;22.10;99.90;;;;;;5098050;28;20205;-60
2022/09/05 06:07:00;;;;;;;2.92;2.25;;;23.00;99.90;;;;;;5098122;28;20664;-60
2022/09/05 06:09:54;;;;;;;2.50;2.03;;;23.60;99.90;;;;;;5097918;28;20228;-61
2022/09/05 06:13:01;;;;;;;5.32;2.42;;;24.20;99.90;;;;;;5097799;28;20212;-60
2022/09/05 06:15:58;;;;;;;4.10;2.50;;;24.40;99.90;;;;;;5097994;28;20344;-61
2022/09/05 06:18:56;;;;;;;8.23;3.10;;;24.50;99.90;;;;;;5097092;28;20602;-61
2022/09/05 06:21:55;;;;;;;4.15;2.40;;;24.80;99.90;;;;;;5097361;28;20690;-61
2022/09/05 06:25:18;;;;;;;9.45;2.63;;;25.30;99.90;;;;;;5096690;28;20208;-61
2022/09/05 06:27:58;;;;;;;8.52;3.55;;;25.60;99.90;;;;;;5103988;28;20726;-61
2022/09/05 06:30:25;;;;;;;4.43;2.40;;;25.90;99.90;;;;;;5104064;28;20219;-61
2022/09/05 06:33:13;;;;;;;3.05;2.03;;;26.30;99.90;;;;;;5102237;28;20211;-61
2022/09/05 06:35:53;;;;;;;2.60;2.00;;;26.90;99.90;;;;;;5101076;28;20739;-61
2022/09/05 06:38:29;;;;;;;5.07;2.40;;;28.00;99.60;;;;;;5098471;28;20249;-61
2022/09/05 06:41:12;;;;;;;6.05;2.67;;;29.00;96.80;;;;;;5097841;28;20208;-61
2022/09/05 06:44:12;;;;;;;7.43;5.28;;;29.50;93.80;;;;;;5097191;28;20240;-61
2022/09/05 06:46:41;;;;;;;3.50;2.35;;;29.50;93.30;;;;;;5096601;28;20278;-62
2022/09/05 06:49:16;;;;;;;9.70;2.30;;;29.90;92.20;;;;;;5096824;28;20235;-61
2022/09/05 06:52:26;;;;;;;2.83;2.17;;;30.40;90.50;;;;;;5097055;28;20223;-63
2022/09/05 06:55:37;;;;;;;3.13;2.17;;;30.70;88.70;;;;;;5096639;28;20290;-61
2022/09/05 06:59:03;;;;;;;2.97;2.38;;;31.60;84.10;;;;;;5054158;28;20225;-61
2022/09/05 07:01:34;;;;;;;3.70;2.15;;;32.30;82.10;;;;;;5096861;28;20208;-61
2022/09/05 07:04:17;;;;;;;2.97;2.03;;;32.90;78.10;;;;;;5096673;28;20585;-61
2022/09/05 07:07:02;;;;;;;3.67;2.25;;;33.00;77.00;;;;;;5096722;28;20239;-61
2022/09/05 07:09:35;;;;;;;3.97;3.22;;;33.30;76.00;;;;;;5096419;28;20230;-61
2022/09/05 07:12:15;;;;;;;4.47;3.42;;;34.10;73.30;;;;;;5096574;28;20204;-61
2022/09/05 07:14:54;;;;;;;5.05;2.50;;;35.00;67.70;;;;;;5096672;28;20296;-61
2022/09/05 07:17:30;;;;;;;1.80;1.70;;;34.70;66.60;;;;;;5096892;28;20208;-62
2022/09/05 07:20:00;;;;;;;2.30;2.10;;;34.10;67.50;;;;;;5097810;28;20212;-62
2022/09/05 07:22:33;;;;;;;4.30;2.33;;;33.40;69.70;;;;;;5099131;28;20212;-63
2022/09/05 07:25:06;;;;;;;3.00;2.00;;;33.60;70.10;;;;;;5099478;28;20255;-62
2022/09/05 07:27:39;;;;;;;3.92;1.98;;;33.80;69.50;;;;;;5099250;28;20228;-61
2022/09/05 07:30:07;;;;;;;3.22;1.92;;;34.50;68.60;;;;;;5099935;28;20208;-62
2022/09/05 07:32:42;;;;;;;2.72;1.67;;;35.20;65.60;;;;;;5099499;28;20239;-62
2022/09/05 07:35:16;;;;;;;4.30;1.70;;;34.40;66.60;;;;;;5098252;28;20272;-61
2022/09/05 07:37:45;;;;;;;3.85;1.90;;;34.00;68.10;;;;;;5097207;28;20811;-61
2022/09/05 07:40:16;;;;;;;2.65;1.90;;;33.80;69.10;;;;;;5097209;28;20204;-66
2022/09/05 07:42:51;;;;;;;3.60;1.80;;;33.70;67.30;;;;;;5095270;28;20687;-61
2022/09/05 07:45:24;;;;;;;3.42;2.22;;;33.40;69.10;;;;;;5094830;28;20230;-61
2022/09/05 07:47:58;;;;;;;2.85;1.63;;;33.50;69.00;;;;;;5093267;28;20227;-60
2022/09/05 07:50:27;;;;;;;5.85;1.75;;;34.10;67.50;;;;;;5094291;28;20212;-61
2022/09/05 07:52:55;;;;;;;5.05;1.67;;;34.70;66.30;;;;;;5094019;28;20311;-60
2022/09/05 07:55:26;;;;;;;2.90;1.20;;;35.00;65.10;;;;;;5094120;28;20200;-60
2022/09/05 07:57:58;;;;;;;4.97;1.77;;;35.40;63.30;;;;;;5093867;28;20232;-60
2022/09/05 08:00:27;;;;;;;2.67;1.83;;;35.30;62.60;;;;;;5093929;28;20204;-59
2022/09/05 08:02:55;;;;;;;1.80;1.35;;;35.20;62.40;;;;;;5093700;28;20207;-60
2022/09/05 08:05:24;;;;;;;3.40;3.10;;;35.50;61.60;;;;;;5093857;28;20252;-60
2022/09/05 08:07:55;;;;;;;5.55;1.67;;;35.60;61.00;;;;;;5093816;28;20699;-60
2022/09/05 08:10:27;;;;;;;6.28;2.08;;;34.90;63.00;;;;;;5093283;28;20553;-60
2022/09/05 08:13:01;;;;;;;2.28;1.52;;;33.30;65.80;;;;;;5093594;28;20575;-60
2022/09/05 08:15:29;;;;;;;6.85;1.65;;;31.30;70.80;;;;;;5093523;28;20694;-60
2022/09/05 08:18:08;;;;;;;2.83;1.50;;;29.50;76.80;;;;;;5093317;28;20232;-59
2022/09/05 08:20:42;;;;;;;2.97;1.48;;;27.90;81.90;;;;;;5093197;28;20207;-60
2022/09/05 08:23:23;;;;;;;3.05;1.38;;;27.10;86.00;;;;;;5093498;28;20216;-60
2022/09/05 08:25:59;;;;;;;2.83;1.40;;;26.70;89.60;;;;;;5093559;28;20277;-59
2022/09/05 08:28:35;;;;;;;2.70;2.08;;;26.40;90.10;;;;;;5093597;28;20266;-60
2022/09/05 08:31:06;;;;;;;2.28;1.40;;;26.30;90.70;;;;;;5094097;28;20260;-60
2022/09/05 08:33:35;;;;;;;1.75;1.55;;;26.30;90.70;;;;;;5093874;28;20236;-59
2022/09/05 08:36:07;;;;;;;2.53;1.10;;;26.20;90.60;;;;;;5093374;28;20212;-59
2022/09/05 08:38:38;;;;;;;2.13;1.55;;;26.00;91.00;;;;;;5087991;28;20433;-64
2022/09/05 08:41:10;;;;;;;2.25;1.30;;;25.90;91.40;;;;;;5092602;28;20204;-62
2022/09/05 08:43:45;;;;;;;4.50;1.42;;;25.80;91.50;;;;;;5092305;28;20576;-62
2022/09/05 08:46:16;;;;;;;2.28;1.40;;;25.80;92.20;;;;;;5091876;28;20220;-60
2022/09/05 08:49:04;;;;;;;4.60;1.50;;;25.70;92.30;;;;;;5090870;28;20644;-57
2022/09/05 08:51:41;;;;;;;2.72;1.25;;;25.60;92.70;;;;;;5090984;28;20208;-58
2022/09/05 08:54:18;;;;;;;2.55;1.40;;;25.70;93.00;;;;;;5091835;28;20236;-59
2022/09/05 08:56:58;;;;;;;1.83;1.30;;;25.80;93.00;;;;;;5092185;28;20211;-59
2022/09/05 08:59:39;;;;;;;3.75;1.40;;;25.80;92.90;;;;;;5092112;28;20234;-59
2022/09/05 09:02:59;;;;;;;3.17;1.30;;;25.90;92.80;;;;;;5092385;28;20215;-59
2022/09/05 09:05:41;;;;;;;3.17;1.60;;;26.00;92.90;;;;;;5088430;28;20220;-59
2022/09/05 09:08:14;;;;;;;3.20;1.30;;;26.10;93.10;;;;;;5092199;28;20224;-59
2022/09/05 09:10:49;;;;;;;2.08;1.13;;;26.20;92.90;;;;;;5094123;28;20208;-59
2022/09/05 09:13:41;;;;;;;2.40;1.58;;;26.20;92.80;;;;;;5093653;28;20237;-59
2022/09/05 09:16:20;;;;;;;1.70;1.30;;;26.20;93.20;;;;;;5091104;28;20208;-59
2022/09/05 09:19:04;;;;;;;2.38;1.77;;;26.40;93.10;;;;;;5093377;28;20228;-59
2022/09/05 09:21:40;;;;;;;1.90;1.50;;;26.60;92.30;;;;;;5092537;28;20593;-58
2022/09/05 09:24:19;;;;;;;3.42;1.48;;;26.80;91.60;;;;;;5092863;28;20214;-58
2022/09/05 09:26:53;;;;;;;1.65;1.55;;;27.00;91.40;;;;;;5092484;28;20231;-58
2022/09/05 09:29:21;;;;;;;2.17;1.15;;;27.20;90.90;;;;;;5092690;28;20586;-59
2022/09/05 09:32:10;;;;;;;1.48;1.38;;;27.40;90.00;;;;;;5092789;28;20208;-59
2022/09/05 09:34:47;;;;;;;2.13;1.48;;;27.30;90.10;;;;;;5093339;28;20215;-59
2022/09/05 09:37:33;;;;;;;3.30;1.75;;;27.40;87.80;;;;;;5092245;28;20199;-59
2022/09/05 09:40:31;;;;;;;1.10;1.00;;;27.30;88.30;;;;;;5092465;28;20211;-60
2022/09/05 09:43:05;;;;;;;1.98;1.60;;;27.30;87.70;;;;;;5092024;28;20683;-59
2022/09/05 09:45:50;;;;;;;1.95;1.30;;;27.30;85.20;;;;;;5092170;28;20239;-60
2022/09/05 09:48:46;;;;;;;1.65;1.33;;;27.50;85.40;;;;;;5092547;28;20246;-59
2022/09/05 09:51:45;;;;;;;1.65;1.20;;;27.70;82.40;;;;;;5092549;28;20212;-59
2022/09/05 09:54:32;;;;;;;1.30;1.20;;;27.90;82.50;;;;;;5085880;28;20205;-59
2022/09/05 09:57:24;;;;;;;4.10;1.40;;;28.20;81.80;;;;;;5091859;28;20581;-59
2022/09/05 10:00:10;;;;;;;3.03;1.50;;;28.20;81.30;;;;;;5093499;28;20212;-59
2022/09/05 10:02:55;;;;;;;4.90;1.30;;;28.20;80.60;;;;;;5093564;28;20249;-59
2022/09/05 10:06:06;;;;;;;1.38;1.27;;;28.50;80.30;;;;;;5092565;28;20273;-59
2022/09/05 10:08:54;;;;;;;4.20;1.15;;;28.60;80.50;;;;;;5074471;28;20234;-59
2022/09/05 10:11:38;;;;;;;1.58;1.10;;;28.60;80.80;;;;;;5092502;28;20211;-59
2022/09/05 10:14:51;;;;;;;1.88;1.50;;;28.80;81.00;;;;;;5096104;28;20216;-59
2022/09/05 10:17:41;;;;;;;1.83;1.27;;;28.80;81.10;;;;;;5070023;28;20204;-59
2022/09/05 10:20:23;;;;;;;2.20;1.20;;;29.00;79.50;;;;;;5096128;28;20208;-58
2022/09/05 10:23:39;;;;;;;2.15;1.10;;;29.10;78.80;;;;;;5095648;28;20204;-59
2022/09/05 10:26:36;;;;;;;3.13;1.20;;;29.40;78.70;;;;;;5095535;28;20220;-59
2022/09/05 10:29:09;;;;;;;4.03;1.40;;;29.50;78.80;;;;;;5095046;28;20268;-58
2022/09/05 10:31:55;;;;;;;1.83;1.40;;;29.60;78.70;;;;;;5095256;28;20654;-59
2022/09/05 10:34:24;;;;;;;4.72;1.45;;;29.60;78.80;;;;;;5095084;28;20206;-58
2022/09/05 10:36:53;;;;;;;1.30;1.20;;;29.80;78.00;;;;;;5095094;28;20208;-58
2022/09/05 10:39:26;;;;;;;2.92;1.60;;;29.80;77.10;;;;;;5094546;28;20227;-58
2022/09/05 10:41:58;;;;;;;2.50;1.33;;;30.00;76.60;;;;;;5095037;28;20204;-58
2022/09/05 10:44:35;;;;;;;1.10;1.00;;;30.00;75.30;;;;;;5095243;28;20265;-58
2022/09/05 10:47:16;;;;;;;1.38;1.20;;;30.20;74.50;;;;;;5095282;28;20756;-59
2022/09/05 10:49:45;;;;;;;1.35;1.10;;;30.30;72.70;;;;;;5095897;28;20715;-59
2022/09/05 10:52:14;;;;;;;1.63;1.20;;;30.40;70.00;;;;;;5095771;28;20227;-58
2022/09/05 10:54:58;;;;;;;3.35;1.30;;;30.50;69.80;;;;;;5095276;28;20211;-59
2022/09/05 10:57:37;;;;;;;2.55;1.38;;;30.70;69.30;;;;;;5095125;28;20200;-59
2022/09/05 11:00:19;;;;;;;1.60;1.30;;;30.70;71.50;;;;;;5095310;28;20734;-59
2022/09/05 11:02:48;;;;;;;2.67;1.38;;;30.60;71.80;;;;;;5095769;28;20208;-58
2022/09/05 11:05:23;;;;;;;2.85;2.10;;;30.70;71.10;;;;;;5095033;28;20302;-58
2022/09/05 11:08:00;;;;;;;2.72;1.58;;;30.90;69.70;;;;;;5094550;28;20232;-58
2022/09/05 11:10:34;;;;;;;4.55;2.35;;;31.20;68.40;;;;;;5095455;28;20203;-58
2022/09/05 11:13:10;;;;;;;2.92;1.50;;;31.30;67.50;;;;;;5095047;28;20204;-59
2022/09/05 11:15:51;;;;;;;2.17;1.20;;;31.40;62.50;;;;;;5094443;28;20577;-58
2022/09/05 11:18:32;;;;;;;1.92;1.30;;;31.50;63.30;;;;;;5094162;28;20266;-58
2022/09/05 11:21:07;;;;;;;4.30;1.27;;;31.60;64.40;;;;;;5095189;28;20294;-59
2022/09/05 11:23:40;;;;;;;1.63;1.23;;;31.70;61.70;;;;;;5094789;28;20210;-59
2022/09/05 11:26:30;;;;;;;3.45;1.30;;;31.80;60.90;;;;;;5094898;28;20227;-59
2022/09/05 11:29:03;;;;;;;2.97;1.17;;;32.00;59.10;;;;;;5094295;28;20231;-58
2022/09/05 11:31:41;;;;;;;4.00;1.40;;;32.20;57.40;;;;;;5095463;28;20212;-58
2022/09/05 11:34:32;;;;;;;2.70;1.40;;;32.30;57.20;;;;;;5095395;28;20214;-58
2022/09/05 11:37:01;;;;;;;2.00;1.63;;;32.00;58.40;;;;;;5094872;28;20200;-58
2022/09/05 11:40:01;;;;;;;1.20;1.10;;;31.60;59.80;;;;;;5094196;28;20243;-58
2022/09/05 11:42:45;;;;;;;2.53;1.40;;;31.40;60.30;;;;;;5094098;28;20212;-59
2022/09/05 11:45:39;;;;;;;2.13;1.48;;;31.40;60.50;;;;;;5093927;28;20667;-59
2022/09/05 11:48:50;;;;;;;2.33;1.40;;;31.50;60.70;;;;;;5094175;28;20306;-59
2022/09/05 11:51:39;;;;;;;3.38;1.23;;;31.80;60.80;;;;;;5069547;28;20204;-59
2022/09/05 11:54:50;;;;;;;2.75;1.55;;;32.00;59.10;;;;;;5094550;28;20208;-59
2022/09/05 11:57:37;;;;;;;1.60;1.20;;;32.00;56.40;;;;;;5094119;28;20200;-59
2022/09/05 12:00:20;;;;;;;2.25;1.50;;;31.80;56.30;;;;;;5092276;28;20266;-59
2022/09/05 12:03:16;;;;;;;2.45;1.40;;;31.60;56.90;;;;;;5093840;28;20200;-59
2022/09/05 12:06:30;;;;;;;3.13;1.25;;;31.60;58.40;;;;;;5094223;28;20211;-59
2022/09/05 12:09:05;;;;;;;1.67;1.17;;;31.70;58.40;;;;;;5050749;28;20753;-59
2022/09/05 12:11:45;;;;;;;1.55;1.10;;;31.60;58.00;;;;;;5091355;28;20211;-59
2022/09/05 12:14:35;;;;;;;1.50;1.17;;;31.60;55.10;;;;;;5093501;28;20211;-60
2022/09/05 12:17:13;;;;;;;1.10;1.00;;;31.60;53.90;;;;;;5093401;28;20199;-59
2022/09/05 12:19:46;;;;;;;2.13;1.13;;;31.50;53.30;;;;;;5093666;28;20588;-59
2022/09/05 12:22:30;;;;;;;4.43;1.10;;;31.30;52.20;;;;;;5093688;28;20291;-59
2022/09/05 12:25:22;;;;;;;1.13;1.00;;;31.10;54.00;;;;;;5093055;28;20196;-59
2022/09/05 12:27:54;;;;;;;3.05;1.50;;;30.90;55.70;;;;;;5090227;28;20319;-59
2022/09/05 12:30:27;;;;;;;2.20;1.30;;;30.90;56.30;;;;;;5093509;28;20208;-59
2022/09/05 12:32:57;;;;;;;3.08;1.27;;;30.90;56.20;;;;;;5093348;28;20226;-59
2022/09/05 12:35:37;;;;;;;1.52;1.30;;;30.90;57.00;;;;;;5092567;28;20243;-59
2022/09/05 12:38:23;;;;;;;2.38;1.30;;;30.90;55.30;;;;;;5092760;28;20228;-59
2022/09/05 12:40:57;;;;;;;2.47;1.20;;;30.80;56.30;;;;;;5093290;28;20232;-59
2022/09/05 12:43:27;;;;;;;1.92;1.17;;;30.90;56.40;;;;;;5092642;28;20579;-59
2022/09/05 12:45:58;;;;;;;2.88;1.20;;;30.90;57.10;;;;;;5093025;28;20691;-59
2022/09/05 12:48:33;;;;;;;1.40;1.20;;;31.00;57.10;;;;;;5092992;28;20238;-59
2022/09/05 12:51:05;;;;;;;2.70;1.10;;;31.10;57.00;;;;;;5092779;28;20206;-59
2022/09/05 12:53:42;;;;;;;1.20;1.10;;;31.10;56.90;;;;;;5093109;28;20204;-59
2022/09/05 12:56:18;;;;;;;1.83;1.25;;;31.20;56.50;;;;;;5092556;28;20214;-59
2022/09/05 12:58:50;;;;;;;1.60;1.17;;;31.40;56.50;;;;;;5092753;28;20269;-59
2022/09/05 13:01:26;;;;;;;1.50;1.15;;;31.60;54.70;;;;;;5092520;28;20222;-59
2022/09/05 13:03:59;;;;;;;2.00;1.40;;;31.70;54.90;;;;;;5092787;28;20286;-60
2022/09/05 13:06:31;;;;;;;2.08;1.25;;;31.70;54.30;;;;;;5092612;28;20207;-59
2022/09/05 13:09:05;;;;;;;1.85;1.23;;;31.80;53.90;;;;;;5092303;28;20290;-59
2022/09/05 13:11:41;;;;;;;1.58;1.27;;;31.90;53.70;;;;;;5092894;28;20228;-59
2022/09/05 13:14:22;;;;;;;2.08;1.30;;;31.90;53.10;;;;;;5092448;28;20683;-59
2022/09/05 13:16:50;;;;;;;3.38;1.40;;;32.00;52.40;;;;;;5092355;28;20683;-59
2022/09/05 13:19:32;;;;;;;2.10;1.17;;;32.00;52.10;;;;;;5092320;28;20248;-59
2022/09/05 13:22:03;;;;;;;2.22;1.25;;;31.90;52.30;;;;;;5092821;28;20211;-59
2022/09/05 13:24:34;;;;;;;6.35;3.55;;;31.80;52.60;;;;;;5092355;28;20207;-60
2022/09/05 13:27:08;;;;;;;2.08;1.30;;;31.70;52.80;;;;;;5092155;28;20254;-59
2022/09/05 13:29:52;;;;;;;3.33;1.30;;;31.60;52.70;;;;;;5091817;28;20208;-60
2022/09/05 13:32:28;;;;;;;1.48;1.10;;;31.60;53.20;;;;;;5092472;28;20204;-59
2022/09/05 13:35:03;;;;;;;1.98;1.10;;;31.60;52.70;;;;;;5092336;28;20207;-60
2022/09/05 13:37:34;;;;;;;1.80;1.38;;;31.80;52.50;;;;;;5091957;28;20228;-59
2022/09/05 13:40:08;;;;;;;1.80;1.25;;;31.90;52.30;;;;;;5092034;28;20226;-59
2022/09/05 13:42:39;;;;;;;1.92;1.10;;;31.90;52.40;;;;;;5092396;28;20226;-60
2022/09/05 13:45:08;;;;;;;1.08;0.98;;;31.80;53.20;;;;;;5092055;28;20219;-60
2022/09/05 13:48:14;;;;;;;4.15;1.23;;;31.80;53.30;;;;;;5094388;28;20329;-59
2022/09/05 13:50:45;;;;;;;1.20;1.10;;;31.90;52.50;;;;;;5096090;28;20294;-59
2022/09/05 13:53:25;;;;;;;1.42;1.20;;;31.80;52.60;;;;;;5096084;28;20210;-59